Mexico, MO

2:21 PM CDT on July 02, 2015 (GMT -0500)
East side of Mexico, MO | | Change Station
CLOSE
Current Station
Personal Weather Station
Location: Mexico, MO
Elevation: 778 ft
Nearby Weather Stations

Elev 778 ft 39.17 °N, 91.87 °W | Updated 7 minutes ago

Mostly Cloudy
Mostly Cloudy
73.0 °F
Feels Like 75 °F
N
7.0
Wind Variable Wind from ESE
Gusts 9.0 mph

Today
High -- | Low -- °F
--% Chance of Precip.
Yesterday
High -- | Low -- °F
Precip. -- in
5:45 AM 8:37 PM
Full, 99% visible
Pressure 29.89 in
Visibility 10.0 miles
Clouds Mostly Cloudy 1900 ft
Heat Index 75 °F
Dew Point 64 °F
Humidity 73%
Rainfall 0.00 in
Snow Depth Not available.
UV 6 out of 12
Pollen .60 out of 12
Air Quality Not available.
Flu Activity Not available.
METAR KCOU 021854Z 04008KT 10SM BKN019 24/19 A2991 RMK AO2 SLP120 T02440194

More Conditions Fewer Conditions

Pressure 29.89 in
Visibility 10.0 miles
Clouds Mostly Cloudy 1900 ft
Heat Index 75 °F
Dew Point 64 °F
Humidity 73%
Rainfall 0.00 in
Snow Depth Not available.
UV 6 out of 12
Pollen .60 out of 12
Air Quality Not available.
Flu Activity Not available.
METAR KCOU 021854Z 04008KT 10SM BKN019 24/19 A2991 RMK AO2 SLP120 T02440194

More Conditions Fewer Conditions

10-Day Weather Forecast

×

Almanac

Astronomy

Jul. 02, 2015 Rise Set
Actual Time
Civil Twilight
Nautical Twilight
Astronomical Twilight
Moon
Length of Visible Light
Length of Day
Tomorrow will be .
, % of the Moon is Illuminated

Today's Extremes

State Highs State Lows

Community

WunderPhotos

Upload Photos

1,834,519 photos uploaded!

WunderBlogs® & News

Nearby

Air Quality

  Air Quality AQ Index Pollutant
Not available.

Snow Depth

Station Depth Elevation

Earthquake Activity

City Distance Mag. Time & Date
Minimum magnitude displayed is 2.5.

Coastal Water Temperatures

Place Temperature

Stations

Nearby Weather Stations

Station Location Temp. Windchill Dew Point Humidity Wind Precip. Elev Updated Type